Yorba Linda, CA

10:27 PM PDT on April 01, 2015 (GMT -0700)
La Palma/Old Village | | Change Station
CLOSE
Current Station
Personal Weather Station
Location: Yorba Linda, CA
Elevation: 371 ft
Nearby Weather Stations

Elev 371 ft 33.87 °N, 117.73 °W | Updated 5 days ago

Clear
Clear
56 °F
Feels Like 56 °F
N
3
Wind Variable Wind from SE
Gusts mph

Today
High -- | Low -- °F
--% Chance of Precip.
Yesterday
High -- | Low -- °F
Precip. -- in
6:38 AM 7:11 PM
Waxing Gibbous, 95% visible
Pressure 29.94 in
Visibility 10.0 miles
Clouds Mostly Cloudy 100 ft
Overcast 11000 ft
Dew Point 50 °F
Humidity 83%
Rainfall in
Snow Depth Not available.
UV 0 out of 12
Pollen 9.50 out of 12
Air Quality Not available.
Flu Activity Not available.
METAR KAJO 020456Z AUTO 00000KT 10SM BKN001 OVC110 16/08 A2996 RMK AO2 T01610083 OVC V BKN SLP139 $

More Conditions Fewer Conditions

Pressure 29.94 in
Visibility 10.0 miles
Clouds Mostly Cloudy 100 ft
Overcast 11000 ft
Dew Point 50 °F
Humidity 83%
Rainfall in
Snow Depth Not available.
UV 0 out of 12
Pollen 9.50 out of 12
Air Quality Not available.
Flu Activity Not available.
METAR KAJO 020456Z AUTO 00000KT 10SM BKN001 OVC110 16/08 A2996 RMK AO2 T01610083 OVC V BKN SLP139 $

More Conditions Fewer Conditions

10-Day Weather Forecast

Almanac

Astronomy

Apr. 01, 2015 Rise Set
Actual Time
Civil Twilight
Nautical Twilight
Astronomical Twilight
Moon
Length of Visible Light
Length of Day
Tomorrow will be .
, % of the Moon is Illuminated

Today's Extremes

State Highs State Lows

Community

WunderPhotos

Upload Photos

1,810,201 photos uploaded!

WunderBlogs® & News

Nearby

Air Quality

  Air Quality AQ Index Pollutant
Not available.

Snow Depth

Station Depth Elevation

Earthquake Activity

City Distance Mag. Time & Date
Minimum magnitude displayed is 2.5.

Coastal Water Temperatures

Place Temperature

Stations

Nearby Weather Stations

Station Location Temp. Windchill Dew Point Humidity Wind Precip. Elev Updated Type